x

North Channel East (45154) Wave Buoy

8:00pm - Fri 1st Aug 2014 All times are CDT. -5 hours from GMT.

  • Sig Wave height 0.3ft
  • Peak Period 2s
  • Wind
    7mph, 9mph gusts
  • Sea Temp 67°f
  • Air Temp 68°f
  • Sea Pressure 1018.9mb
  • North Channel East
  • North Channel East

More Historic Weather Station data

Upgrade to MSW Pro to gain access to the past 30 days of data for over 8000 Wavebouys and Weather Stations around the globe.

Join Pro

Comparision Forecast

View Surf forecast
   
Fri 08/01 8:00pm 0.3ft 2s 7 9 mph 1018.9mb 67f 68f
7:00pm 0.3ft 2s 9
mph
1018.6mb 67f 69f
6:00pm 0.7ft 2s 7 9 mph 1018.5mb 68f 69f
5:00pm 0.3ft 2s 7 9 mph 1018.2mb 68f 70f
4:00pm 0.3ft 2s 7
mph
1018.1mb 68f 69f
3:00pm 0.3ft 2s 7 9 mph 1018.1mb 69f 69f
2:00pm 0.3ft 3s 7 9 mph 1018.4mb 69f 68f
1:00pm 0.3ft 2s 4
mph
1018.5mb 68f 67f
12:00pm 0.3ft 5s 2 4 mph 1018.5mb 67f 66f
11:00am 0.3ft 2s  -  2 mph 1018.5mb 67f 65f
10:00am 0.3ft 2s 2
mph
1018.5mb 65f 63f
9:00am 0.3ft 3s 2
mph
1018mb 65f 63f
8:00am 0.3ft 3s 2
mph
1017.6mb 64f 63f
7:00am 0.3ft 2s 2 4 mph 1017.4mb 64f 63f
6:00am 0.3ft 2s 4
mph
1016.9mb 64f 63f
5:00am 0.3ft 2s 4
mph
1016.2mb 64f 62f
4:00am 0.3ft 2s 4 7 mph 1016.1mb 64f 62f
3:00am 0.7ft 2s 7 9 mph 1015.6mb 64f 63f
2:00am 0.7ft 2s 9 11 mph 1015.4mb 64f 63f
1:00am 0.7ft 2s 7 9 mph 1015.2mb 64f 63f
12:00am 0.7ft 3s 9
mph
1015.4mb 64f 64f
Thu 07/31 11:00pm 1ft 3s 9 11 mph 1015.2mb 64f 64f
10:00pm 1ft 3s 9 11 mph 1015.1mb 64f 64f
9:00pm 1.3ft 3s 11 16 mph 1014.9mb 64f 64f
8:00pm 1.3ft 3s 11 13 mph 1014.5mb 64f 64f
7:00pm 1.3ft 3s 11 16 mph 1014mb 64f 66f
5:00pm 1ft 3s 9 11 mph 1013.6mb 64f 67f
4:00pm 1ft 3s 9 11 mph 1013.2mb 64f 66f
3:00pm 1ft 3s 9 11 mph 1013mb 65f 66f
2:00pm 1.3ft 3s 9 11 mph 1013.1mb 64f 65f
1:00pm 1.3ft 3s 13 16 mph 1013mb 65f 65f
12:00pm 1.3ft 2s 9 11 mph 1013.2mb 64f 64f
11:00am 1ft 3s 9 11 mph 1013.4mb 64f 63f
10:00am 1ft 3s 11 13 mph 1013.2mb 64f 62f
9:00am 1.3ft 3s 11 13 mph 1013.4mb 64f 61f
8:00am 1.3ft 3s 13 16 mph 1013.4mb 64f 61f
7:00am 1.6ft 3s 13 16 mph 1013.2mb 64f 61f
6:00am 1.6ft 3s 16 18 mph 1013.2mb 64f 61f
5:00am 1.6ft 3s 16 18 mph 1013.1mb 64f 60f
4:00am 1.3ft 3s 16 20 mph 1013.2mb 64f 61f
3:00am 1ft 3s 13 18 mph 1013.2mb 64f 60f
2:00am 1ft 2s 13
mph
1013.6mb 64f 60f
1:00am 1ft 2s 11 13 mph 1013.9mb 64f 60f
12:00am 1ft 3s 11 13 mph 1014.2mb 64f 60f
Wed 07/30 11:00pm 1.3ft 4s 9 11 mph 1014.3mb 64f 61f
10:00pm 1.6ft 4s 2 4 mph 1014.1mb 64f 61f
9:00pm 1.6ft 4s 9 11 mph 1014.3mb 64f 62f
8:00pm 1.6ft 3s 13 16 mph 1014mb 64f 62f
7:00pm 2ft 4s 18 20 mph 1013.9mb 64f 62f
6:00pm 2ft 3s 16 20 mph 1014mb 64f 63f
5:00pm 2.5ft 3s 18 20 mph 1013.7mb 64f 63f
4:00pm 2ft 4s 18 22 mph 1013.7mb 65f 64f
3:00pm 1.6ft 3s 16 20 mph 1013.8mb 65f 63f
2:00pm 1.6ft 3s 16 18 mph 1013.9mb 65f 62f
1:00pm 1ft 2s 16 18 mph 1014.2mb 65f 62f
12:00pm 0.7ft 3s 11 13 mph 1014.6mb 65f 61f
11:00am 0.7ft 3s 7 9 mph 1015mb 65f 60f
10:00am 0.7ft 2s 4 7 mph 1015.2mb 65f 60f
9:00am 0.7ft 3s 4
mph
1015.2mb 64f 59f
8:00am 1ft 2s 4 7 mph 1015.1mb 64f 58f
7:00am 0.7ft 3s 7 9 mph 1014.9mb 64f 58f
6:00am 0.7ft 3s 4 9 mph 1014.3mb 64f 59f
5:00am 0.7ft 2s 7
mph
1013.9mb 64f 58f
4:00am 1ft 2s 9 11 mph 1013.5mb 64f 58f
3:00am 1ft 2s 11 13 mph 1013.1mb 64f 59f
2:00am 1ft 4s 11 13 mph 1013.1mb 64f 59f
1:00am 1ft 4s 9 11 mph 1013.2mb 64f 60f
12:00am 1ft 4s 9 11 mph 1012.9mb 64f 60f
Tue 07/29 11:00pm 1ft 4s 4 7 mph 1012.6mb 64f 61f
10:00pm 0.7ft 4s 9 11 mph 1012.6mb 64f 62f
9:00pm 1ft 3s 7 9 mph 1012.5mb 64f 62f
8:00pm 1ft 3s 4 7 mph 1012.2mb 64f 61f
7:00pm 1.3ft 4s 9 11 mph 1012.3mb 64f 61f
6:00pm 1.3ft 4s 11 16 mph 1011.7mb 64f 64f
5:00pm 2ft 4s 7 9 mph 1011.7mb 65f 62f
4:00pm 2.5ft 4s 16 18 mph 1011.7mb 65f 64f
3:00pm 2.5ft 4s 18 22 mph 1010.8mb 65f 64f
2:00pm 2.5ft 4s 20 22 mph 1010.9mb 65f 63f
1:00pm 1.6ft 3s 18 22 mph 1011.2mb 65f 61f
12:00pm 1ft 2s 13 16 mph 1011.7mb 65f 61f
11:00am 0.7ft 3s 9 11 mph 1012mb 65f 60f
10:00am 1ft 3s 7 9 mph 1012mb 65f 59f
9:00am 1ft 3s 4 9 mph 1012.2mb 65f 59f
8:00am 1ft 3s 9 11 mph 1012.1mb 64f 58f
7:00am 1ft 3s 11 16 mph 1012mb 64f 58f
6:00am 1.3ft 3s 11 13 mph 1011.9mb 64f 59f
4:00am 1.6ft 3s 16 20 mph 1011.8mb 64f 58f
3:00am 1.6ft 4s 13 16 mph 1011.7mb 64f 59f